createdAt,value
2023-02-28T00:00:25.151Z,9.745666
2023-02-28T00:01:25.141Z,9.745848
2023-02-28T00:02:25.223Z,9.745874
2023-02-28T00:03:25.200Z,9.745912
2023-02-28T00:04:25.123Z,9.745884
2023-02-28T00:05:25.120Z,9.745948
2023-02-28T00:06:25.129Z,9.745675
2023-02-28T00:07:25.111Z,9.745213
2023-02-28T00:08:25.121Z,9.745287
2023-02-28T00:09:25.090Z,9.744828
2023-02-28T00:10:25.086Z,9.744838
2023-02-28T00:11:25.081Z,9.745010
2023-02-28T00:12:25.060Z,9.745151
2023-02-28T00:13:25.091Z,9.745081
2023-02-28T00:14:25.052Z,9.744916
2023-02-28T00:15:25.059Z,9.744897
2023-02-28T00:16:25.094Z,9.744852
2023-02-28T00:17:25.033Z,9.744669
2023-02-28T00:18:25.065Z,9.745677
2023-02-28T00:19:25.020Z,9.745629
2023-02-28T00:20:25.000Z,9.745584
2023-02-28T00:21:25.001Z,9.745561
2023-02-28T00:22:24.996Z,9.745421
2023-02-28T00:23:25.019Z,9.745579
2023-02-28T00:24:24.996Z,9.745525
2023-02-28T00:25:25.020Z,9.745239
2023-02-28T00:26:24.962Z,9.744861
2023-02-28T00:27:24.963Z,9.745301
2023-02-28T00:28:24.974Z,9.745423
2023-02-28T00:29:24.944Z,9.745191
2023-02-28T00:30:24.947Z,9.745193
2023-02-28T00:31:24.924Z,9.745193
2023-02-28T00:32:24.923Z,9.744709
2023-02-28T00:33:24.954Z,9.744931
2023-02-28T00:34:24.905Z,9.745327
2023-02-28T00:35:24.928Z,9.745342
2023-02-28T00:36:24.910Z,9.745281
2023-02-28T00:37:24.883Z,9.745447
2023-02-28T00:38:24.909Z,9.745136
2023-02-28T00:39:24.888Z,9.745136
2023-02-28T00:40:24.866Z,9.745136
2023-02-28T00:41:24.863Z,9.745453
2023-02-28T00:42:24.851Z,9.745645
2023-02-28T00:43:24.870Z,9.745645
2023-02-28T00:44:24.839Z,9.745559
2023-02-28T00:45:24.833Z,9.745494
2023-02-28T00:46:24.870Z,9.745218
2023-02-28T00:47:24.819Z,9.745471
2023-02-28T00:48:24.830Z,9.745378
2023-02-28T00:49:24.802Z,9.745325
2023-02-28T00:50:24.796Z,9.745515
2023-02-28T00:51:24.817Z,9.745748
2023-02-28T00:52:24.775Z,9.745798
2023-02-28T00:53:24.794Z,9.745719
2023-02-28T00:54:24.753Z,9.745832
2023-02-28T00:55:24.748Z,9.745753
2023-02-28T00:56:24.739Z,9.745694
2023-02-28T00:57:24.743Z,9.745694
2023-02-28T00:58:24.754Z,9.745694
2023-02-28T00:59:24.716Z,9.745738
2023-02-28T01:00:24.724Z,9.745657
2023-02-28T01:01:24.726Z,9.745657
2023-02-28T01:02:24.697Z,9.745393
2023-02-28T01:03:24.716Z,9.745259
2023-02-28T01:04:24.731Z,9.745014
2023-02-28T01:05:24.674Z,9.745230
2023-02-28T01:06:25.675Z,9.745566
2023-02-28T01:07:24.658Z,9.744742
2023-02-28T01:08:24.672Z,9.744742
2023-02-28T01:09:24.650Z,9.744742
2023-02-28T01:10:24.644Z,9.744742
2023-02-28T01:11:24.636Z,9.744742
2023-02-28T01:12:24.627Z,9.744742
2023-02-28T01:13:24.644Z,9.744742
2023-02-28T01:14:24.619Z,9.744742
2023-02-28T01:15:24.631Z,9.744742
2023-02-28T01:16:24.608Z,9.744742
2023-02-28T01:17:24.589Z,9.744742
2023-02-28T01:18:24.619Z,9.744742
2023-02-28T01:19:24.573Z,9.744742
2023-02-28T01:20:24.559Z,9.744742
2023-02-28T01:21:24.551Z,9.744742
2023-02-28T01:22:24.546Z,9.744742
2023-02-28T01:23:24.605Z,9.744742
2023-02-28T01:24:24.543Z,9.744742
2023-02-28T01:25:25.210Z,9.744742
2023-02-28T01:26:24.526Z,9.744742
2023-02-28T01:27:24.519Z,9.744742
2023-02-28T01:28:24.543Z,9.744742
2023-02-28T01:29:24.499Z,9.744742
2023-02-28T01:30:24.497Z,9.744742
2023-02-28T01:31:24.520Z,9.744742
2023-02-28T01:32:24.529Z,9.744742
2023-02-28T01:33:24.473Z,9.744742
2023-02-28T01:34:24.502Z,9.744742
2023-02-28T01:35:24.454Z,9.744516
2023-02-28T01:36:24.487Z,9.744516
2023-02-28T01:37:24.444Z,9.744516
2023-02-28T01:38:24.437Z,9.744516
2023-02-28T01:39:24.463Z,9.744516
2023-02-28T01:40:24.438Z,9.745863
2023-02-28T01:41:24.409Z,9.745863
2023-02-28T01:42:24.413Z,9.745863
2023-02-28T01:43:24.414Z,9.744273
2023-02-28T01:44:24.420Z,9.744273
2023-02-28T01:45:24.382Z,9.744273
2023-02-28T01:46:24.430Z,9.744273
2023-02-28T01:47:24.371Z,9.744326
2023-02-28T01:48:24.361Z,9.744510
2023-02-28T01:49:24.398Z,9.745072
2023-02-28T01:50:24.341Z,9.745088
2023-02-28T01:51:24.342Z,9.745088
2023-02-28T01:52:24.331Z,9.745699
2023-02-28T01:53:24.324Z,9.745699
2023-02-28T01:54:24.344Z,9.745446
2023-02-28T01:55:24.306Z,9.744877
2023-02-28T01:56:24.302Z,9.744901
2023-02-28T01:57:24.292Z,9.744901
2023-02-28T01:58:24.284Z,9.744901
2023-02-28T01:59:24.309Z,9.745303
2023-02-28T02:00:24.283Z,9.745958
2023-02-28T02:01:24.324Z,9.745859
2023-02-28T02:02:24.287Z,9.745745
2023-02-28T02:03:24.253Z,9.745930
2023-02-28T02:04:24.270Z,9.745653
2023-02-28T02:05:24.237Z,9.745653
2023-02-28T02:06:24.226Z,9.745653
2023-02-28T02:07:24.227Z,9.745653
2023-02-28T02:08:24.224Z,9.745653
2023-02-28T02:09:24.234Z,9.745653
2023-02-28T02:10:24.192Z,9.745653
2023-02-28T02:11:25.212Z,9.745653
2023-02-28T02:12:24.190Z,9.745653
2023-02-28T02:13:24.184Z,9.745653
2023-02-28T02:14:24.204Z,9.745653
2023-02-28T02:15:24.175Z,9.745653
2023-02-28T02:16:24.248Z,9.745653
2023-02-28T02:17:24.167Z,9.745653
2023-02-28T02:18:24.147Z,9.745653
2023-02-28T02:19:24.180Z,9.745653
2023-02-28T02:20:24.136Z,9.745653
2023-02-28T02:21:24.129Z,9.745653
2023-02-28T02:22:24.116Z,9.745653
2023-02-28T02:23:24.117Z,9.745653
2023-02-28T02:24:24.133Z,9.745653
2023-02-28T02:25:24.099Z,9.745653
2023-02-28T02:26:24.088Z,9.745193
2023-02-28T02:27:24.084Z,9.745466
2023-02-28T02:28:24.081Z,9.745484
2023-02-28T02:29:24.094Z,9.745553
2023-02-28T02:30:24.060Z,9.745287
2023-02-28T02:31:24.095Z,9.745514
2023-02-28T02:32:24.080Z,9.745760
2023-02-28T02:33:24.041Z,9.746050
2023-02-28T02:34:24.058Z,9.745632
2023-02-28T02:35:24.015Z,9.745428
2023-02-28T02:36:24.008Z,9.745076
2023-02-28T02:37:24.004Z,9.745364
2023-02-28T02:38:24.007Z,9.745378
2023-02-28T02:39:23.991Z,9.745777
2023-02-28T02:40:24.016Z,9.745667
2023-02-28T02:41:23.973Z,9.745680
2023-02-28T02:42:23.970Z,9.745464
2023-02-28T02:43:23.977Z,9.745506
2023-02-28T02:44:23.989Z,9.745506
2023-02-28T02:45:23.942Z,9.745506
2023-02-28T02:46:23.948Z,9.745604
2023-02-28T02:47:23.923Z,9.745657
2023-02-28T02:48:23.930Z,9.745822
2023-02-28T02:49:23.911Z,9.745826
2023-02-28T02:50:23.938Z,9.745826
2023-02-28T02:51:23.909Z,9.745826
2023-02-28T02:52:23.889Z,9.745914
2023-02-28T02:53:23.879Z,9.745914
2023-02-28T02:54:23.874Z,9.745914
2023-02-28T02:55:23.900Z,9.745914
2023-02-28T02:56:23.862Z,9.745614
2023-02-28T02:57:23.847Z,9.745614
2023-02-28T02:58:23.846Z,9.745614
2023-02-28T02:59:23.847Z,9.745614
2023-02-28T03:00:23.862Z,9.745614
2023-02-28T03:01:23.825Z,9.745614
2023-02-28T03:02:23.822Z,9.745614
2023-02-28T03:03:23.816Z,9.745614
2023-02-28T03:04:23.812Z,9.745614
2023-02-28T03:05:23.856Z,9.745614
2023-02-28T03:06:23.800Z,9.745614
2023-02-28T03:07:23.784Z,9.745614
2023-02-28T03:08:23.792Z,9.745614
2023-02-28T03:09:23.772Z,9.745614
2023-02-28T03:10:23.785Z,9.745614
2023-02-28T03:11:23.764Z,9.745614
2023-02-28T03:12:23.743Z,9.745614
2023-02-28T03:13:23.750Z,9.745614
2023-02-28T03:14:23.729Z,9.745614
2023-02-28T03:15:23.752Z,9.745614
2023-02-28T03:16:23.765Z,9.745614
2023-02-28T03:17:23.712Z,9.745614
2023-02-28T03:18:23.698Z,9.745614
2023-02-28T03:19:23.688Z,9.745614
2023-02-28T03:20:23.710Z,9.745614
2023-02-28T03:21:23.681Z,9.745614
2023-02-28T03:22:23.669Z,9.745614
2023-02-28T03:23:23.663Z,9.745614
2023-02-28T03:24:23.685Z,9.745311
2023-02-28T03:25:23.687Z,9.745473
2023-02-28T03:26:23.647Z,9.745101
2023-02-28T03:27:23.643Z,9.745101
2023-02-28T03:28:23.638Z,9.745101
2023-02-28T03:29:23.630Z,9.745296
2023-02-28T03:30:23.645Z,9.745475
2023-02-28T03:31:23.634Z,9.745475
2023-02-28T03:32:23.629Z,9.745475
2023-02-28T03:33:23.594Z,9.745475
2023-02-28T03:34:23.588Z,9.745675
2023-02-28T03:35:23.685Z,9.745642
2023-02-28T03:36:23.569Z,9.745642
2023-02-28T03:37:23.591Z,9.745642
2023-02-28T03:38:23.562Z,9.745768
2023-02-28T03:39:23.550Z,9.745598
2023-02-28T03:40:23.576Z,9.745598
2023-02-28T03:41:23.552Z,9.745474
2023-02-28T03:42:23.523Z,9.745631
2023-02-28T03:43:23.526Z,9.745631
2023-02-28T03:44:23.509Z,9.745631
2023-02-28T03:45:23.561Z,9.745197
2023-02-28T03:46:23.502Z,9.745333
2023-02-28T03:47:23.487Z,9.745333
2023-02-28T03:48:23.479Z,9.745333
2023-02-28T03:49:23.480Z,9.745333
2023-02-28T03:50:23.488Z,9.745333
2023-02-28T03:51:23.460Z,9.745333
2023-02-28T03:52:23.453Z,9.745333
2023-02-28T03:53:23.443Z,9.745333
2023-02-28T03:54:23.447Z,9.745333
2023-02-28T03:55:23.447Z,9.745333
2023-02-28T03:56:23.422Z,9.745333
2023-02-28T03:57:23.416Z,9.745333
2023-02-28T03:58:23.404Z,9.745333
2023-02-28T03:59:23.402Z,9.745333
2023-02-28T04:00:23.419Z,9.745333
2023-02-28T04:01:23.437Z,9.745528
2023-02-28T04:02:23.370Z,9.745528
2023-02-28T04:03:23.367Z,9.745528
2023-02-28T04:04:23.385Z,9.745528
2023-02-28T04:05:23.380Z,9.745528
2023-02-28T04:06:23.358Z,9.745528
2023-02-28T04:07:23.382Z,9.745528
2023-02-28T04:08:23.333Z,9.745528
2023-02-28T04:09:23.314Z,9.745517
2023-02-28T04:10:24.355Z,9.745517
2023-02-28T04:11:23.303Z,9.746372
2023-02-28T04:12:23.299Z,9.745447
2023-02-28T04:13:23.290Z,9.745447
2023-02-28T04:14:23.286Z,9.745447
2023-02-28T04:15:23.315Z,9.745444
2023-02-28T04:16:34.310Z,9.745266
2023-02-28T04:17:25.270Z,9.745449
2023-02-28T04:18:23.268Z,9.745443
2023-02-28T04:19:23.253Z,9.745383
2023-02-28T04:20:24.283Z,9.745342
2023-02-28T04:21:23.252Z,9.745342
2023-02-28T04:22:23.236Z,9.745342
2023-02-28T04:23:23.221Z,9.745127
2023-02-28T04:24:23.223Z,9.745261
2023-02-28T04:25:23.211Z,9.745261
2023-02-28T04:26:23.241Z,9.745261
2023-02-28T04:27:23.202Z,9.746208
2023-02-28T04:28:23.186Z,9.746208
2023-02-28T04:29:23.178Z,9.746047
2023-02-28T04:30:23.179Z,9.746168
2023-02-28T04:31:23.210Z,9.745950
2023-02-28T04:32:23.200Z,9.746191
2023-02-28T04:33:23.153Z,9.746161
2023-02-28T04:34:23.140Z,9.746161
2023-02-28T04:35:23.194Z,9.746161
2023-02-28T04:36:23.156Z,9.746161
2023-02-28T04:37:23.127Z,9.746161
2023-02-28T04:38:23.115Z,9.746161
2023-02-28T04:39:23.107Z,9.746161
2023-02-28T04:40:23.105Z,9.746161
2023-02-28T04:41:23.114Z,9.746161
2023-02-28T04:42:23.082Z,9.746161
2023-02-28T04:43:23.076Z,9.746161
2023-02-28T04:44:23.071Z,9.746161
2023-02-28T04:45:23.061Z,9.746161
2023-02-28T04:46:23.090Z,9.746161
2023-02-28T04:47:23.082Z,9.746161
2023-02-28T04:48:23.039Z,9.746161
2023-02-28T04:49:23.046Z,9.746161
2023-02-28T04:50:23.024Z,9.746161
2023-02-28T04:51:23.060Z,9.746161
2023-02-28T04:52:23.022Z,9.746161
2023-02-28T04:53:22.998Z,9.746161
2023-02-28T04:54:22.996Z,9.746161
2023-02-28T04:55:23.002Z,9.746161
2023-02-28T04:56:23.012Z,9.746161
2023-02-28T04:57:22.990Z,9.746161
2023-02-28T04:58:22.973Z,9.746161
2023-02-28T04:59:22.959Z,9.746161
2023-02-28T05:00:22.949Z,9.746161
2023-02-28T05:01:22.970Z,9.746161
2023-02-28T05:02:23.022Z,9.746161
2023-02-28T05:03:22.928Z,9.746161
2023-02-28T05:04:22.990Z,9.746161
2023-02-28T05:05:22.936Z,9.745614
2023-02-28T05:06:22.936Z,9.745535
2023-02-28T05:07:22.897Z,9.745556
2023-02-28T05:08:22.900Z,9.745560
2023-02-28T05:09:22.879Z,9.745475
2023-02-28T05:10:22.880Z,9.745545
2023-02-28T05:11:22.900Z,9.745510
2023-02-28T05:12:22.856Z,9.745493
2023-02-28T05:13:22.851Z,9.745571
2023-02-28T05:14:22.851Z,9.745461
2023-02-28T05:15:22.848Z,9.745605
2023-02-28T05:16:22.922Z,9.745319
2023-02-28T05:17:23.829Z,9.745358
2023-02-28T05:18:22.855Z,9.745465
2023-02-28T05:19:22.805Z,9.745475
2023-02-28T05:20:22.803Z,9.745385
2023-02-28T05:21:22.837Z,9.745435
2023-02-28T05:22:22.788Z,9.745556
2023-02-28T05:23:22.774Z,9.745298
2023-02-28T05:24:22.833Z,9.745351
2023-02-28T05:25:22.769Z,9.745422
2023-02-28T05:26:22.799Z,9.745481
2023-02-28T05:27:22.751Z,9.745548
2023-02-28T05:28:22.739Z,9.745566
2023-02-28T05:29:22.742Z,9.745501
2023-02-28T05:30:22.737Z,9.745624
2023-02-28T05:31:22.759Z,9.745399
2023-02-28T05:32:22.790Z,9.745439
2023-02-28T05:33:22.752Z,9.745604
2023-02-28T05:34:22.699Z,9.745456
2023-02-28T05:35:22.777Z,9.745407
2023-02-28T05:36:22.719Z,9.745389
2023-02-28T05:37:22.826Z,9.745537
2023-02-28T05:38:23.676Z,9.745167
2023-02-28T05:39:22.656Z,9.745266
2023-02-28T05:40:22.660Z,9.745114
2023-02-28T05:41:22.651Z,9.745483
2023-02-28T05:42:22.674Z,9.745508
2023-02-28T05:43:22.638Z,9.745505
2023-02-28T05:44:22.629Z,9.745312
2023-02-28T05:45:22.625Z,9.745312
2023-02-28T05:46:22.624Z,9.745528
2023-02-28T05:47:22.641Z,9.745470
2023-02-28T05:48:22.646Z,9.744971
2023-02-28T05:49:22.586Z,9.745033
2023-02-28T05:50:22.585Z,9.745584
2023-02-28T05:51:22.575Z,9.745494
2023-02-28T05:52:22.590Z,9.745494
2023-02-28T05:53:22.565Z,9.745494
2023-02-28T05:54:22.553Z,9.745494
2023-02-28T05:55:22.545Z,9.745494
2023-02-28T05:56:22.545Z,9.745494
2023-02-28T05:57:24.677Z,9.745512
2023-02-28T05:58:23.524Z,9.745426
2023-02-28T05:59:22.516Z,9.745275
2023-02-28T06:00:22.508Z,9.745265
2023-02-28T06:01:22.502Z,9.745321
2023-02-28T06:02:22.565Z,9.745535
2023-02-28T06:03:22.553Z,9.745520
2023-02-28T06:04:31.626Z,9.745708
2023-02-28T06:05:24.474Z,9.745662
2023-02-28T06:06:22.470Z,9.745523
2023-02-28T06:07:22.481Z,9.745519
2023-02-28T06:08:22.468Z,9.745454
2023-02-28T06:09:22.444Z,9.745514
2023-02-28T06:10:22.457Z,9.745309
2023-02-28T06:11:22.436Z,9.745628
2023-02-28T06:12:22.450Z,9.745628
2023-02-28T06:13:22.416Z,9.745667
2023-02-28T06:14:22.412Z,9.745641
2023-02-28T06:15:22.401Z,9.745534
2023-02-28T06:16:22.460Z,9.745469
2023-02-28T06:17:22.530Z,9.746065
2023-02-28T06:18:22.386Z,9.745462
2023-02-28T06:19:22.373Z,9.745279
2023-02-28T06:20:22.365Z,9.745037
2023-02-28T06:21:22.356Z,9.745422
2023-02-28T06:22:22.373Z,9.745507
2023-02-28T06:23:22.346Z,9.745675
2023-02-28T06:24:22.339Z,9.745640
2023-02-28T06:25:22.356Z,9.745494
2023-02-28T06:26:22.328Z,9.745620
2023-02-28T06:27:22.341Z,9.745640
2023-02-28T06:28:22.304Z,9.745389
2023-02-28T06:29:22.299Z,9.745455
2023-02-28T06:30:22.291Z,9.745376
2023-02-28T06:31:22.336Z,9.745376
2023-02-28T06:32:23.332Z,9.745439
2023-02-28T06:33:22.278Z,9.745439
2023-02-28T06:34:22.264Z,9.745439
2023-02-28T06:35:22.362Z,9.745511
2023-02-28T06:36:22.249Z,9.745511
2023-02-28T06:37:22.270Z,9.745330
2023-02-28T06:38:22.238Z,9.745518
2023-02-28T06:39:22.240Z,9.745656
2023-02-28T06:40:22.224Z,9.745601
2023-02-28T06:41:22.215Z,9.745633
2023-02-28T06:42:22.235Z,9.745907
2023-02-28T06:43:22.205Z,9.745563
2023-02-28T06:44:22.203Z,9.745518
2023-02-28T06:45:22.187Z,9.745554
2023-02-28T06:46:22.371Z,9.745478
2023-02-28T06:47:22.194Z,9.745227
2023-02-28T06:48:22.181Z,9.745556
2023-02-28T06:49:22.164Z,9.745431
2023-02-28T06:50:22.147Z,9.745391
2023-02-28T06:51:22.139Z,9.745386
2023-02-28T06:52:22.191Z,9.745386
2023-02-28T06:53:22.125Z,9.745386
2023-02-28T06:54:22.117Z,9.745386
2023-02-28T06:55:22.105Z,9.745386
2023-02-28T06:56:22.129Z,9.745386
2023-02-28T06:57:22.127Z,9.745239
2023-02-28T06:58:22.089Z,9.745288
2023-02-28T06:59:22.094Z,9.745288
2023-02-28T07:00:22.078Z,9.745288
2023-02-28T07:01:22.084Z,9.745288
2023-02-28T07:02:22.068Z,9.745288
2023-02-28T07:03:22.075Z,9.745288
2023-02-28T07:04:22.136Z,9.745288
2023-02-28T07:05:22.037Z,9.745288
2023-02-28T07:06:22.025Z,9.745288
2023-02-28T07:07:22.019Z,9.745288
2023-02-28T07:08:22.033Z,9.745424
2023-02-28T07:09:22.000Z,9.745198
2023-02-28T07:10:21.999Z,9.744992
2023-02-28T07:11:21.997Z,9.744933
2023-02-28T07:12:21.982Z,9.745010
2023-02-28T07:13:22.001Z,9.745177
2023-02-28T07:14:21.977Z,9.745193
2023-02-28T07:15:21.951Z,9.745502
2023-02-28T07:16:21.979Z,9.745218
2023-02-28T07:17:21.941Z,9.745043
2023-02-28T07:18:21.956Z,9.744970
2023-02-28T07:19:21.920Z,9.744711
2023-02-28T07:20:21.920Z,9.744711
2023-02-28T07:21:21.915Z,9.744711
2023-02-28T07:22:21.912Z,9.744711
2023-02-28T07:23:21.922Z,9.744711
2023-02-28T07:24:21.895Z,9.744973
2023-02-28T07:25:21.883Z,9.744861
2023-02-28T07:26:21.869Z,9.744861
2023-02-28T07:27:21.864Z,9.744861
2023-02-28T07:28:21.887Z,9.744861
2023-02-28T07:29:21.836Z,9.745776
2023-02-28T07:30:22.844Z,9.745808
2023-02-28T07:31:21.866Z,9.745871
2023-02-28T07:32:21.845Z,9.745761
2023-02-28T07:33:21.927Z,9.745775
2023-02-28T07:34:21.816Z,9.745994
2023-02-28T07:35:21.798Z,9.745881
2023-02-28T07:36:21.787Z,9.745642
2023-02-28T07:37:21.784Z,9.745794
2023-02-28T07:38:21.805Z,9.745763
2023-02-28T07:39:21.768Z,9.745564
2023-02-28T07:40:21.755Z,9.745451
2023-02-28T07:41:21.767Z,9.745429
2023-02-28T07:42:21.748Z,9.745569
2023-02-28T07:43:21.763Z,9.745503
2023-02-28T07:44:21.726Z,9.745746
2023-02-28T07:45:21.725Z,9.745858
2023-02-28T07:46:21.719Z,9.745592
2023-02-28T07:47:23.176Z,9.745476
2023-02-28T07:48:21.737Z,9.745441
2023-02-28T07:49:21.699Z,9.745564
2023-02-28T07:50:21.688Z,9.745623
2023-02-28T07:51:21.678Z,9.745480
2023-02-28T07:52:21.668Z,9.745591
2023-02-28T07:53:21.691Z,9.745662
2023-02-28T07:54:21.665Z,9.745432
2023-02-28T07:55:21.648Z,9.745506
2023-02-28T07:56:21.637Z,9.745787
2023-02-28T07:57:21.634Z,9.745783
2023-02-28T07:58:21.647Z,9.746037
2023-02-28T07:59:21.618Z,9.745947
2023-02-28T08:00:21.636Z,9.745597
2023-02-28T08:01:21.671Z,9.745580
2023-02-28T08:02:21.595Z,9.745631
2023-02-28T08:03:21.614Z,9.745540
2023-02-28T08:04:21.586Z,9.745730
2023-02-28T08:05:22.377Z,9.745802
2023-02-28T08:06:22.562Z,9.745595
2023-02-28T08:07:21.553Z,9.745544
2023-02-28T08:08:21.565Z,9.745723
2023-02-28T08:09:21.538Z,9.745674
2023-02-28T08:10:21.527Z,9.745719
2023-02-28T08:11:21.536Z,9.745747
2023-02-28T08:12:21.515Z,9.745655
2023-02-28T08:13:21.542Z,9.745649
2023-02-28T08:14:21.495Z,9.745590
2023-02-28T08:15:21.489Z,9.745391
2023-02-28T08:16:21.560Z,9.745664
2023-02-28T08:17:21.507Z,9.745770
2023-02-28T08:18:21.494Z,9.745562
2023-02-28T08:19:21.456Z,9.745498
2023-02-28T08:20:21.460Z,9.745395
2023-02-28T08:21:21.479Z,9.745396
2023-02-28T08:22:22.430Z,9.745259
2023-02-28T08:23:21.455Z,9.745329
2023-02-28T08:24:21.418Z,9.745456
2023-02-28T08:25:21.408Z,9.745644
2023-02-28T08:26:21.410Z,9.745277
2023-02-28T08:27:21.392Z,9.745560
2023-02-28T08:28:21.382Z,9.745565
2023-02-28T08:29:21.403Z,9.745246
2023-02-28T08:30:21.379Z,9.745047
2023-02-28T08:31:21.476Z,9.745047
2023-02-28T08:32:29.734Z,9.745455
2023-02-28T08:33:23.372Z,9.745520
2023-02-28T08:34:21.339Z,9.745553
2023-02-28T08:35:21.326Z,9.745553
2023-02-28T08:36:21.360Z,9.745194
2023-02-28T08:37:21.308Z,9.745372
2023-02-28T08:38:21.311Z,9.745409
2023-02-28T08:39:21.321Z,9.745489
2023-02-28T08:40:21.293Z,9.745688
2023-02-28T08:41:21.288Z,9.745704
2023-02-28T08:42:21.267Z,9.745659
2023-02-28T08:43:22.267Z,9.745817
2023-02-28T08:44:21.295Z,9.745681
2023-02-28T08:45:21.249Z,9.745713
2023-02-28T08:46:21.261Z,9.745583
2023-02-28T08:47:21.243Z,9.745455
2023-02-28T08:48:21.236Z,9.745584
2023-02-28T08:49:21.247Z,9.745626
2023-02-28T08:50:21.220Z,9.745636
2023-02-28T08:51:21.203Z,9.745543
2023-02-28T08:52:21.193Z,9.745593
2023-02-28T08:53:21.197Z,9.745716
2023-02-28T08:54:21.218Z,9.745708
2023-02-28T08:55:21.171Z,9.745674
2023-02-28T08:56:21.167Z,9.745610
2023-02-28T08:57:21.189Z,9.745443
2023-02-28T08:58:21.144Z,9.745522
2023-02-28T08:59:21.171Z,9.745415
2023-02-28T09:00:21.133Z,9.745489
2023-02-28T09:01:21.202Z,9.745600
2023-02-28T09:02:21.115Z,9.745595
2023-02-28T09:03:23.172Z,9.745570
2023-02-28T09:04:21.250Z,9.745639
2023-02-28T09:05:21.094Z,9.745505
2023-02-28T09:06:21.083Z,9.745696
2023-02-28T09:07:21.089Z,9.745606
2023-02-28T09:08:21.079Z,9.745608
2023-02-28T09:09:21.096Z,9.745638
2023-02-28T09:10:21.058Z,9.745646
2023-02-28T09:11:21.045Z,9.745894
2023-02-28T09:12:21.039Z,9.745696
2023-02-28T09:13:21.034Z,9.745646
2023-02-28T09:14:21.055Z,9.745749
2023-02-28T09:15:21.015Z,9.745737
2023-02-28T09:16:21.021Z,9.745761
2023-02-28T09:17:20.998Z,9.745731
2023-02-28T09:18:20.994Z,9.745629
2023-02-28T09:19:21.016Z,9.745496
2023-02-28T09:20:20.981Z,9.745643
2023-02-28T09:21:20.972Z,9.745312
2023-02-28T09:22:20.965Z,9.746126
2023-02-28T09:23:20.955Z,9.746158
2023-02-28T09:24:20.975Z,9.745466
2023-02-28T09:25:20.941Z,9.745259
2023-02-28T09:26:20.932Z,9.745238
2023-02-28T09:27:20.928Z,9.745028
2023-02-28T09:28:20.922Z,9.744996
2023-02-28T09:29:20.940Z,9.744996
2023-02-28T09:30:20.928Z,9.745527
2023-02-28T09:31:20.954Z,9.745684
2023-02-28T09:32:20.950Z,9.745852
2023-02-28T09:33:20.882Z,9.745852
2023-02-28T09:34:20.913Z,9.745852
2023-02-28T09:35:20.863Z,9.745852
2023-02-28T09:36:21.137Z,9.745634
2023-02-28T09:37:20.848Z,9.745634
2023-02-28T09:38:20.892Z,9.745634
2023-02-28T09:39:20.854Z,9.745634
2023-02-28T09:40:20.826Z,9.745634
2023-02-28T09:41:20.810Z,9.745634
2023-02-28T09:42:20.804Z,9.745727
2023-02-28T09:43:20.811Z,9.745727
2023-02-28T09:44:20.825Z,9.745583
2023-02-28T09:45:20.797Z,9.745461
2023-02-28T09:46:20.831Z,9.745729
2023-02-28T09:47:20.777Z,9.745515
2023-02-28T09:48:20.757Z,9.745662
2023-02-28T09:49:20.779Z,9.745440
2023-02-28T09:50:20.745Z,9.745461
2023-02-28T09:51:20.740Z,9.745629
2023-02-28T09:52:20.807Z,9.745742
2023-02-28T09:53:20.728Z,9.745543
2023-02-28T09:54:20.761Z,9.745358
2023-02-28T09:55:20.713Z,9.745247
2023-02-28T09:56:20.709Z,9.744976
2023-02-28T09:57:20.699Z,9.741536
2023-02-28T09:58:20.716Z,9.742679
2023-02-28T09:59:20.907Z,9.744246
2023-02-28T10:00:20.679Z,9.742804
2023-02-28T10:01:20.698Z,9.743300
2023-02-28T10:02:20.659Z,9.744825
2023-02-28T10:03:20.651Z,9.745047
2023-02-28T10:04:20.723Z,9.745272
2023-02-28T10:05:20.657Z,9.745167
2023-02-28T10:06:20.657Z,9.745278
2023-02-28T10:07:20.719Z,9.745492
2023-02-28T10:08:20.611Z,9.745312
2023-02-28T10:09:20.614Z,9.745278
2023-02-28T10:10:20.627Z,9.745408
2023-02-28T10:11:20.589Z,9.745801
2023-02-28T10:12:20.582Z,9.746093
2023-02-28T10:13:20.573Z,9.747770
2023-02-28T10:14:20.562Z,9.745790
2023-02-28T10:15:20.580Z,9.745068
2023-02-28T10:16:20.534Z,9.745086
2023-02-28T10:17:20.532Z,9.745008
2023-02-28T10:18:20.530Z,9.745244
2023-02-28T10:19:20.526Z,9.745557
2023-02-28T10:20:20.530Z,9.745367
2023-02-28T10:21:21.498Z,9.745530
2023-02-28T10:22:20.497Z,9.745487
2023-02-28T10:23:20.492Z,9.745444
2023-02-28T10:24:20.489Z,9.745496
2023-02-28T10:25:20.496Z,9.745470
2023-02-28T10:26:20.470Z,9.745534
2023-02-28T10:27:20.461Z,9.745740
2023-02-28T10:28:20.457Z,9.745998
2023-02-28T10:29:20.440Z,9.745578
2023-02-28T10:30:20.532Z,9.745804
2023-02-28T10:31:20.491Z,9.745526
2023-02-28T10:32:20.499Z,9.745510
2023-02-28T10:33:21.483Z,9.745305
2023-02-28T10:34:20.408Z,9.745305
2023-02-28T10:35:20.446Z,9.745291
2023-02-28T10:36:20.486Z,9.745397
2023-02-28T10:37:20.398Z,9.745511
2023-02-28T10:38:20.370Z,9.745782
2023-02-28T10:39:20.369Z,9.745883
2023-02-28T10:40:20.412Z,9.745359
2023-02-28T10:41:20.377Z,9.745279
2023-02-28T10:42:20.338Z,9.745429
2023-02-28T10:43:20.334Z,9.745399
2023-02-28T10:44:20.329Z,9.745234
2023-02-28T10:45:20.346Z,9.745143
2023-02-28T10:46:20.395Z,9.745310
2023-02-28T10:47:20.305Z,9.745322
2023-02-28T10:48:20.295Z,9.745474
2023-02-28T10:49:20.297Z,9.745352
2023-02-28T10:50:20.320Z,9.745335
2023-02-28T10:51:20.271Z,9.745453
2023-02-28T10:52:20.262Z,9.745397
2023-02-28T10:53:20.254Z,9.745665
2023-02-28T10:54:20.257Z,9.745653
2023-02-28T10:55:20.266Z,9.745740
2023-02-28T10:56:20.243Z,9.745501
2023-02-28T10:57:20.240Z,9.745491
2023-02-28T10:58:20.218Z,9.745437
2023-02-28T10:59:20.213Z,9.745288
2023-02-28T11:00:20.247Z,9.745095
2023-02-28T11:01:20.195Z,9.745089
2023-02-28T11:02:20.193Z,9.745588
2023-02-28T11:03:20.179Z,9.745610
2023-02-28T11:04:52.206Z,9.745240
2023-02-28T11:05:20.162Z,9.745312
2023-02-28T11:06:20.160Z,9.745492
2023-02-28T11:07:22.101Z,9.745248
2023-02-28T11:08:20.148Z,9.744964
2023-02-28T11:09:20.133Z,9.745203
2023-02-28T11:10:20.163Z,9.745183
2023-02-28T11:11:20.189Z,9.745106
2023-02-28T11:12:20.123Z,9.745017
2023-02-28T11:13:20.109Z,9.745064
2023-02-28T11:14:20.093Z,9.745460
2023-02-28T11:15:20.129Z,9.745319
2023-02-28T11:16:20.110Z,9.745259
2023-02-28T11:17:20.058Z,9.745468
2023-02-28T11:18:20.170Z,9.745370
2023-02-28T11:19:20.064Z,9.745201
2023-02-28T11:20:20.071Z,9.745376
2023-02-28T11:21:20.028Z,9.745486
2023-02-28T11:22:20.023Z,9.745511
2023-02-28T11:23:20.016Z,9.745466
2023-02-28T11:24:20.008Z,9.745479
2023-02-28T11:25:19.998Z,9.745493
2023-02-28T11:26:20.023Z,9.745589
2023-02-28T11:27:19.981Z,9.745569
2023-02-28T11:28:19.974Z,9.745752
2023-02-28T11:29:19.960Z,9.745290
2023-02-28T11:30:19.949Z,9.745540
2023-02-28T11:31:20.038Z,9.745682
2023-02-28T11:32:20.043Z,9.745557
2023-02-28T11:33:19.937Z,9.745557
2023-02-28T11:34:19.936Z,9.745645
2023-02-28T11:35:19.930Z,9.745466
2023-02-28T11:36:21.249Z,9.745727
2023-02-28T11:37:20.910Z,9.745660
2023-02-28T11:38:19.924Z,9.745685
2023-02-28T11:39:19.910Z,9.745699
2023-02-28T11:40:19.876Z,9.745605
2023-02-28T11:41:19.898Z,9.745410
2023-02-28T11:42:19.873Z,9.745923
2023-02-28T11:43:19.854Z,9.745881
2023-02-28T11:44:19.847Z,9.745771